Newport, Arkansas
Current Conditions -  °F | °C
As of 9:56 PM on Thursday 20 Nov 2014 (Local Time) from KM19 Reporting Station
Light Rain Light Rain  
Wind Chill: 39°   Ceiling: 3300
Heat Index: 43°   Visibility: 4mi
Dew Point: 31°   Wind: 6mph
Humidity: 63%   Direction: 40°NE
Pressure: 30.27"   Gusts: NA
Location:  35.6°N, 91.28°W
Report Text: KM19 210356Z AUTO 04005KT 4SM -RA OVC033 06/M01 A3027 RMK AO2 T00611005 P0000 SLP252
Loading
Personal Weather Stations






























Interactive Weather Map New forecast layout! Learn more

10-Day Weather Forecast

Advertisements
Track Severe Weather on mobile